sensor_id;sensor_type;location;lat;lon;timestamp;pressure;altitude;pressure_sealevel;temperature;humidity
77452;BME280;66537;52.370;4.832;2023-04-22T00:02:03;100905.78;;;9.87;86.75
77452;BME280;66537;52.370;4.832;2023-04-22T00:04:29;100904.88;;;9.88;86.65
77452;BME280;66537;52.370;4.832;2023-04-22T00:06:54;100904.19;;;9.81;86.95
77452;BME280;66537;52.370;4.832;2023-04-22T00:09:20;100912.16;;;9.72;87.31
77452;BME280;66537;52.370;4.832;2023-04-22T00:11:46;100907.66;;;9.80;87.26
77452;BME280;66537;52.370;4.832;2023-04-22T00:14:11;100919.88;;;9.74;86.92
77452;BME280;66537;52.370;4.832;2023-04-22T00:16:37;100907.91;;;9.70;87.03
77452;BME280;66537;52.370;4.832;2023-04-22T00:19:03;100911.34;;;9.70;87.19
77452;BME280;66537;52.370;4.832;2023-04-22T00:21:28;100916.88;;;9.55;87.36
77452;BME280;66537;52.370;4.832;2023-04-22T00:23:54;100918.97;;;9.40;87.62
77452;BME280;66537;52.370;4.832;2023-04-22T00:26:19;100919.63;;;9.48;88.30
77452;BME280;66537;52.370;4.832;2023-04-22T00:28:45;100923.03;;;9.50;87.87
77452;BME280;66537;52.370;4.832;2023-04-22T00:31:10;100923.91;;;9.50;87.92
77452;BME280;66537;52.370;4.832;2023-04-22T00:33:35;100930.69;;;9.53;88.21
77452;BME280;66537;52.370;4.832;2023-04-22T00:36:01;100931.69;;;9.47;87.64
77452;BME280;66537;52.370;4.832;2023-04-22T00:38:26;100928.94;;;9.55;88.16
77452;BME280;66537;52.370;4.832;2023-04-22T00:40:52;100927.44;;;9.45;87.48
77452;BME280;66537;52.370;4.832;2023-04-22T00:43:17;100930.06;;;9.43;87.65
77452;BME280;66537;52.370;4.832;2023-04-22T00:45:43;100921.69;;;9.34;87.98
77452;BME280;66537;52.370;4.832;2023-04-22T00:48:08;100932.91;;;9.33;87.71
77452;BME280;66537;52.370;4.832;2023-04-22T00:50:34;100926.97;;;9.28;88.36
77452;BME280;66537;52.370;4.832;2023-04-22T00:52:59;100928.72;;;9.26;88.35
77452;BME280;66537;52.370;4.832;2023-04-22T00:55:25;100933.91;;;9.26;88.28
77452;BME280;66537;52.370;4.832;2023-04-22T00:57:50;100928.41;;;9.01;89.18
77452;BME280;66537;52.370;4.832;2023-04-22T01:00:16;100927.41;;;9.08;89.48
77452;BME280;66537;52.370;4.832;2023-04-22T01:02:44;100928.22;;;9.10;89.44
77452;BME280;66537;52.370;4.832;2023-04-22T01:05:10;100929.81;;;9.17;89.27
77452;BME280;66537;52.370;4.832;2023-04-22T01:07:36;100919.56;;;9.13;89.01
77452;BME280;66537;52.370;4.832;2023-04-22T01:10:02;100930.78;;;9.12;88.92
77452;BME280;66537;52.370;4.832;2023-04-22T01:12:28;100919.91;;;8.97;88.99
77452;BME280;66537;52.370;4.832;2023-04-22T01:14:53;100918.19;;;8.96;88.92
77452;BME280;66537;52.370;4.832;2023-04-22T01:17:19;100917.31;;;8.97;88.69
77452;BME280;66537;52.370;4.832;2023-04-22T01:19:47;100913.84;;;8.98;88.72
77452;BME280;66537;52.370;4.832;2023-04-22T01:22:13;100919.91;;;8.97;88.75
77452;BME280;66537;52.370;4.832;2023-04-22T01:24:39;100914.03;;;8.89;88.69
77452;BME280;66537;52.370;4.832;2023-04-22T01:27:04;100915.69;;;8.93;88.94
77452;BME280;66537;52.370;4.832;2023-04-22T01:29:31;100925.25;;;8.87;89.20
77452;BME280;66537;52.370;4.832;2023-04-22T01:31:56;100927.13;;;8.79;89.06
77452;BME280;66537;52.370;4.832;2023-04-22T01:34:22;100916.97;;;8.71;89.72
77452;BME280;66537;52.370;4.832;2023-04-22T01:36:49;100921.41;;;8.65;89.79
77452;BME280;66537;52.370;4.832;2023-04-22T01:39:14;100922.97;;;8.73;90.22
77452;BME280;66537;52.370;4.832;2023-04-22T01:41:40;100918.66;;;8.74;89.50
77452;BME280;66537;52.370;4.832;2023-04-22T01:44:05;100916.03;;;8.75;89.81
77452;BME280;66537;52.370;4.832;2023-04-22T01:46:32;100917.00;;;8.70;89.78
77452;BME280;66537;52.370;4.832;2023-04-22T01:48:57;100922.44;;;8.56;89.86
77452;BME280;66537;52.370;4.832;2023-04-22T01:51:22;100920.59;;;8.63;90.33
77452;BME280;66537;52.370;4.832;2023-04-22T01:53:48;100919.81;;;8.59;90.22
77452;BME280;66537;52.370;4.832;2023-04-22T01:56:14;100911.97;;;8.64;90.16
77452;BME280;66537;52.370;4.832;2023-04-22T01:58:39;100912.59;;;8.76;90.28
77452;BME280;66537;52.370;4.832;2023-04-22T02:01:05;100922.28;;;8.64;89.90
77452;BME280;66537;52.370;4.832;2023-04-22T02:03:30;100918.22;;;8.52;90.22
77452;BME280;66537;52.370;4.832;2023-04-22T02:05:56;100920.41;;;8.72;90.38
77452;BME280;66537;52.370;4.832;2023-04-22T02:08:21;100920.50;;;8.69;90.30
77452;BME280;66537;52.370;4.832;2023-04-22T02:10:47;100914.31;;;8.76;89.76
77452;BME280;66537;52.370;4.832;2023-04-22T02:13:12;100916.03;;;8.75;89.99
77452;BME280;66537;52.370;4.832;2023-04-22T02:15:38;100911.81;;;8.71;89.90
77452;BME280;66537;52.370;4.832;2023-04-22T02:18:04;100910.94;;;8.72;89.83
77452;BME280;66537;52.370;4.832;2023-04-22T02:20:30;100914.50;;;8.67;89.48
77452;BME280;66537;52.370;4.832;2023-04-22T02:22:55;100920.59;;;8.63;89.53
77452;BME280;66537;52.370;4.832;2023-04-22T02:25:21;100916.47;;;8.54;89.84
77452;BME280;66537;52.370;4.832;2023-04-22T02:27:46;100910.59;;;8.48;90.35
77452;BME280;66537;52.370;4.832;2023-04-22T02:30:11;100901.00;;;8.54;90.45
77452;BME280;66537;52.370;4.832;2023-04-22T02:32:37;100909.44;;;8.62;90.46
77452;BME280;66537;52.370;4.832;2023-04-22T02:35:04;100906.72;;;8.68;89.52
77452;BME280;66537;52.370;4.832;2023-04-22T02:37:30;100908.41;;;8.71;89.36
77452;BME280;66537;52.370;4.832;2023-04-22T02:39:55;100903.22;;;8.72;89.10
77452;BME280;66537;52.370;4.832;2023-04-22T02:42:20;100906.66;;;8.71;89.00
77452;BME280;66537;52.370;4.832;2023-04-22T02:44:46;100906.66;;;8.73;89.06
77452;BME280;66537;52.370;4.832;2023-04-22T02:47:11;100904.16;;;8.68;88.90
77452;BME280;66537;52.370;4.832;2023-04-22T02:49:36;100908.56;;;8.62;88.84
77452;BME280;66537;52.370;4.832;2023-04-22T02:52:02;100905.31;;;8.52;89.17
77452;BME280;66537;52.370;4.832;2023-04-22T02:54:27;100898.56;;;8.47;89.48
77452;BME280;66537;52.370;4.832;2023-04-22T02:56:52;100898.97;;;8.26;89.16
77452;BME280;66537;52.370;4.832;2023-04-22T02:59:17;100898.78;;;8.35;89.89
77452;BME280;66537;52.370;4.832;2023-04-22T03:01:43;100892.72;;;8.37;89.83
77452;BME280;66537;52.370;4.832;2023-04-22T03:04:09;100887.38;;;8.48;89.61
77452;BME280;66537;52.370;4.832;2023-04-22T03:06:36;100889.19;;;8.43;89.10
77452;BME280;66537;52.370;4.832;2023-04-22T03:09:01;100878.84;;;8.46;89.03
77452;BME280;66537;52.370;4.832;2023-04-22T03:11:26;100880.91;;;8.24;88.95
77452;BME280;66537;52.370;4.832;2023-04-22T03:13:52;100888.84;;;8.13;90.21
77452;BME280;66537;52.370;4.832;2023-04-22T03:16:17;100875.91;;;8.16;90.41
77452;BME280;66537;52.370;4.832;2023-04-22T03:18:42;100881.03;;;8.18;90.13
77452;BME280;66537;52.370;4.832;2023-04-22T03:21:08;100871.53;;;8.20;90.92
77452;BME280;66537;52.370;4.832;2023-04-22T03:23:33;100875.75;;;8.24;90.13
77452;BME280;66537;52.370;4.832;2023-04-22T03:25:59;100874.13;;;8.20;90.22
77452;BME280;66537;52.370;4.832;2023-04-22T03:28:24;100872.44;;;8.17;90.15
77452;BME280;66537;52.370;4.832;2023-04-22T03:30:50;100860.41;;;8.18;90.23
77452;BME280;66537;52.370;4.832;2023-04-22T03:33:17;100863.75;;;8.26;89.86
77452;BME280;66537;52.370;4.832;2023-04-22T03:35:42;100859.28;;;8.34;89.73
77452;BME280;66537;52.370;4.832;2023-04-22T03:38:07;100855.91;;;8.31;89.27
77452;BME280;66537;52.370;4.832;2023-04-22T03:40:32;100854.25;;;8.27;88.74
77452;BME280;66537;52.370;4.832;2023-04-22T03:42:58;100860.34;;;8.21;88.87
77452;BME280;66537;52.370;4.832;2023-04-22T03:45:23;100857.88;;;8.16;89.34
77452;BME280;66537;52.370;4.832;2023-04-22T03:47:49;100851.91;;;8.14;89.51
77452;BME280;66537;52.370;4.832;2023-04-22T03:50:14;100848.50;;;8.11;89.49
77452;BME280;66537;52.370;4.832;2023-04-22T03:52:39;100847.53;;;8.18;89.25
77452;BME280;66537;52.370;4.832;2023-04-22T03:55:05;100845.13;;;8.07;89.13
77452;BME280;66537;52.370;4.832;2023-04-22T03:57:30;100852.13;;;8.02;89.38
77452;BME280;66537;52.370;4.832;2023-04-22T03:59:56;100845.25;;;8.03;89.58
77452;BME280;66537;52.370;4.832;2023-04-22T04:02:21;100841.81;;;8.02;89.74
77452;BME280;66537;52.370;4.832;2023-04-22T04:04:46;100847.00;;;7.99;90.10
77452;BME280;66537;52.370;4.832;2023-04-22T04:07:12;100847.00;;;7.99;90.34
77452;BME280;66537;52.370;4.832;2023-04-22T04:09:37;100837.44;;;8.06;90.40
77452;BME280;66537;52.370;4.832;2023-04-22T04:12:03;100841.44;;;8.22;89.78
77452;BME280;66537;52.370;4.832;2023-04-22T04:14:28;100836.25;;;8.23;89.65
77452;BME280;66537;52.370;4.832;2023-04-22T04:16:53;100828.63;;;8.17;89.10
77452;BME280;66537;52.370;4.832;2023-04-22T04:19:19;100832.03;;;8.19;88.64
77452;BME280;66537;52.370;4.832;2023-04-22T04:21:44;100831.09;;;8.23;88.73
77452;BME280;66537;52.370;4.832;2023-04-22T04:24:10;100833.75;;;8.20;88.87
77452;BME280;66537;52.370;4.832;2023-04-22T04:26:35;100841.56;;;8.16;88.35
77452;BME280;66537;52.370;4.832;2023-04-22T04:29:02;100830.38;;;8.15;88.57
77452;BME280;66537;52.370;4.832;2023-04-22T04:31:27;100828.59;;;8.20;88.40
77452;BME280;66537;52.370;4.832;2023-04-22T04:33:53;100829.41;;;8.23;88.30
77452;BME280;66537;52.370;4.832;2023-04-22T04:36:21;100834.53;;;8.26;88.23
77452;BME280;66537;52.370;4.832;2023-04-22T04:38:46;100830.28;;;8.21;88.14
77452;BME280;66537;52.370;4.832;2023-04-22T04:41:12;100825.06;;;8.26;88.03
77452;BME280;66537;52.370;4.832;2023-04-22T04:43:38;100829.34;;;8.27;87.95
77452;BME280;66537;52.370;4.832;2023-04-22T04:46:04;100836.91;;;8.35;87.48
77452;BME280;66537;52.370;4.832;2023-04-22T04:48:30;100832.44;;;8.44;87.92
77452;BME280;66537;52.370;4.832;2023-04-22T04:51:00;100831.50;;;8.48;87.61
77452;BME280;66537;52.370;4.832;2023-04-22T04:53:25;100821.91;;;8.55;87.39
77452;BME280;66537;52.370;4.832;2023-04-22T04:55:50;100819.94;;;8.66;87.27
77452;BME280;66537;52.370;4.832;2023-04-22T04:58:16;100825.06;;;8.67;87.00
77452;BME280;66537;52.370;4.832;2023-04-22T05:00:41;100830.13;;;8.72;87.30
77452;BME280;66537;52.370;4.832;2023-04-22T05:03:06;100827.69;;;8.66;87.15
77452;BME280;66537;52.370;4.832;2023-04-22T05:05:32;100823.50;;;8.60;87.55
77452;BME280;66537;52.370;4.832;2023-04-22T05:07:58;100823.00;;;8.83;87.33
77452;BME280;66537;52.370;4.832;2023-04-22T05:10:23;100828.91;;;8.89;87.27
77452;BME280;66537;52.370;4.832;2023-04-22T05:12:49;100822.88;;;8.89;87.19
77452;BME280;66537;52.370;4.832;2023-04-22T05:15:15;100831.38;;;8.94;86.81
77452;BME280;66537;52.370;4.832;2023-04-22T05:17:40;100825.06;;;9.07;86.53
77452;BME280;66537;52.370;4.832;2023-04-22T05:20:06;100825.88;;;9.09;86.34
77452;BME280;66537;52.370;4.832;2023-04-22T05:22:33;100822.41;;;9.12;86.43
77452;BME280;66537;52.370;4.832;2023-04-22T05:24:58;100824.22;;;9.06;86.47
77452;BME280;66537;52.370;4.832;2023-04-22T05:27:23;100817.41;;;9.02;86.97
77452;BME280;66537;52.370;4.832;2023-04-22T05:29:49;100818.34;;;9.00;87.58
77452;BME280;66537;52.370;4.832;2023-04-22T05:32:14;100824.31;;;9.02;87.77
77452;BME280;66537;52.370;4.832;2023-04-22T05:34:40;100830.28;;;9.04;88.18
77452;BME280;66537;52.370;4.832;2023-04-22T05:37:05;100826.97;;;8.99;88.00
77452;BME280;66537;52.370;4.832;2023-04-22T05:39:32;100832.22;;;8.96;88.12
77452;BME280;66537;52.370;4.832;2023-04-22T05:41:57;100831.91;;;9.09;87.86
77452;BME280;66537;52.370;4.832;2023-04-22T05:44:23;100833.13;;;9.30;87.40
77452;BME280;66537;52.370;4.832;2023-04-22T05:46:48;100831.19;;;9.40;87.02
77452;BME280;66537;52.370;4.832;2023-04-22T05:49:14;100823.34;;;9.43;86.32
77452;BME280;66537;52.370;4.832;2023-04-22T05:51:40;100828.25;;;9.53;86.32
77452;BME280;66537;52.370;4.832;2023-04-22T05:54:06;100837.41;;;9.66;85.79
77452;BME280;66537;52.370;4.832;2023-04-22T05:56:31;100829.59;;;9.68;85.82
77452;BME280;66537;52.370;4.832;2023-04-22T05:58:56;100842.31;;;9.77;85.32
77452;BME280;66537;52.370;4.832;2023-04-22T06:01:22;100844.84;;;9.78;85.26
77452;BME280;66537;52.370;4.832;2023-04-22T06:03:49;100842.81;;;9.89;85.17
77452;BME280;66537;52.370;4.832;2023-04-22T06:06:14;100832.69;;;9.82;84.40
77452;BME280;66537;52.370;4.832;2023-04-22T06:08:39;100832.16;;;9.69;84.84
77452;BME280;66537;52.370;4.832;2023-04-22T06:11:05;100833.22;;;9.61;86.11
77452;BME280;66537;52.370;4.832;2023-04-22T06:13:30;100833.22;;;9.61;86.42
77452;BME280;66537;52.370;4.832;2023-04-22T06:15:55;100830.59;;;9.62;86.66
77452;BME280;66537;52.370;4.832;2023-04-22T06:18:21;100827.16;;;9.63;87.58
77452;BME280;66537;52.370;4.832;2023-04-22T06:20:46;100825.53;;;9.59;87.30
77452;BME280;66537;52.370;4.832;2023-04-22T06:23:12;100823.47;;;9.72;86.60
77452;BME280;66537;52.370;4.832;2023-04-22T06:25:37;100818.00;;;9.84;86.00
77452;BME280;66537;52.370;4.832;2023-04-22T06:28:02;100810.75;;;9.98;85.49
77452;BME280;66537;52.370;4.832;2023-04-22T06:30:28;100813.22;;;10.02;85.50
77452;BME280;66537;52.370;4.832;2023-04-22T06:32:54;100800.94;;;10.09;85.65
77452;BME280;66537;52.370;4.832;2023-04-22T06:35:20;100790.44;;;10.17;85.65
77452;BME280;66537;52.370;4.832;2023-04-22T06:37:49;100800.44;;;10.29;85.38
77452;BME280;66537;52.370;4.832;2023-04-22T06:40:14;100798.28;;;10.44;84.32
77452;BME280;66537;52.370;4.832;2023-04-22T06:42:40;100788.09;;;10.38;82.72
77452;BME280;66537;52.370;4.832;2023-04-22T06:45:05;100790.41;;;10.49;82.42
77452;BME280;66537;52.370;4.832;2023-04-22T06:47:33;100795.28;;;10.58;81.69
77452;BME280;66537;52.370;4.832;2023-04-22T06:49:58;100806.09;;;10.72;80.87
77452;BME280;66537;52.370;4.832;2023-04-22T06:52:24;100786.59;;;10.88;81.36
77452;BME280;66537;52.370;4.832;2023-04-22T06:54:49;100782.78;;;11.00;81.59
77452;BME280;66537;52.370;4.832;2023-04-22T06:57:14;100774.38;;;10.93;80.05
77452;BME280;66537;52.370;4.832;2023-04-22T06:59:40;100769.81;;;10.73;79.59
77452;BME280;66537;52.370;4.832;2023-04-22T07:02:06;100778.94;;;10.85;80.30
77452;BME280;66537;52.370;4.832;2023-04-22T07:04:31;100768.91;;;11.02;79.61
77452;BME280;66537;52.370;4.832;2023-04-22T07:06:56;100772.00;;;11.13;78.82
77452;BME280;66537;52.370;4.832;2023-04-22T07:09:22;100773.25;;;11.28;78.42
77452;BME280;66537;52.370;4.832;2023-04-22T07:11:47;100776.47;;;11.34;78.12
77452;BME280;66537;52.370;4.832;2023-04-22T07:14:13;100774.28;;;11.48;77.38
77452;BME280;66537;52.370;4.832;2023-04-22T07:16:38;100770.63;;;11.55;77.11
77452;BME280;66537;52.370;4.832;2023-04-22T07:19:03;100773.72;;;11.66;77.35
77452;BME280;66537;52.370;4.832;2023-04-22T07:21:30;100770.91;;;11.72;76.09
77452;BME280;66537;52.370;4.832;2023-04-22T07:23:56;100774.00;;;12.07;75.79
77452;BME280;66537;52.370;4.832;2023-04-22T07:26:22;100768.16;;;12.02;75.87
77452;BME280;66537;52.370;4.832;2023-04-22T07:28:47;100776.03;;;11.99;75.47
77452;BME280;66537;52.370;4.832;2023-04-22T07:31:12;100784.63;;;12.24;74.78
77452;BME280;66537;52.370;4.832;2023-04-22T07:33:38;100791.78;;;12.63;75.87
77452;BME280;66537;52.370;4.832;2023-04-22T07:36:03;100782.16;;;13.32;73.44
77452;BME280;66537;52.370;4.832;2023-04-22T07:38:29;100769.59;;;14.42;68.62
77452;BME280;66537;52.370;4.832;2023-04-22T07:40:54;100773.25;;;14.57;67.61
77452;BME280;66537;52.370;4.832;2023-04-22T07:43:20;100765.38;;;14.39;66.08
77452;BME280;66537;52.370;4.832;2023-04-22T07:45:45;100785.78;;;14.30;67.54
77452;BME280;66537;52.370;4.832;2023-04-22T07:48:10;100781.78;;;14.41;66.75
77452;BME280;66537;52.370;4.832;2023-04-22T07:50:35;100773.63;;;14.49;66.78
77452;BME280;66537;52.370;4.832;2023-04-22T07:53:01;100766.25;;;14.40;67.34
77452;BME280;66537;52.370;4.832;2023-04-22T07:55:26;100769.59;;;14.79;65.45
77452;BME280;66537;52.370;4.832;2023-04-22T07:57:51;100765.34;;;14.95;65.63
77452;BME280;66537;52.370;4.832;2023-04-22T08:00:17;100768.72;;;15.84;63.95
77452;BME280;66537;52.370;4.832;2023-04-22T08:02:42;100766.66;;;16.87;61.38
77452;BME280;66537;52.370;4.832;2023-04-22T08:05:08;100788.63;;;17.60;59.13
77452;BME280;66537;52.370;4.832;2023-04-22T08:07:33;100781.25;;;17.37;57.49
77452;BME280;66537;52.370;4.832;2023-04-22T08:09:59;100781.97;;;17.84;57.60
77452;BME280;66537;52.370;4.832;2023-04-22T08:12:25;100779.97;;;18.45;57.54
77452;BME280;66537;52.370;4.832;2023-04-22T08:14:50;100771.94;;;19.42;53.80
77452;BME280;66537;52.370;4.832;2023-04-22T08:17:16;100775.09;;;19.99;52.79
77452;BME280;66537;52.370;4.832;2023-04-22T08:19:45;100770.84;;;20.09;51.08
77452;BME280;66537;52.370;4.832;2023-04-22T08:22:11;100756.28;;;19.80;51.95
77452;BME280;66537;52.370;4.832;2023-04-22T08:24:37;100745.88;;;20.16;51.69
77452;BME280;66537;52.370;4.832;2023-04-22T08:27:03;100743.25;;;20.29;50.82
77452;BME280;66537;52.370;4.832;2023-04-22T08:29:28;100738.94;;;20.28;50.11
77452;BME280;66537;52.370;4.832;2023-04-22T08:31:54;100730.66;;;20.21;51.03
77452;BME280;66537;52.370;4.832;2023-04-22T08:34:19;100732.34;;;20.22;49.91
77452;BME280;66537;52.370;4.832;2023-04-22T08:36:45;100733.38;;;20.07;48.76
77452;BME280;66537;52.370;4.832;2023-04-22T08:39:11;100724.16;;;20.63;47.10
77452;BME280;66537;52.370;4.832;2023-04-22T08:41:37;100720.31;;;20.31;48.32
77452;BME280;66537;52.370;4.832;2023-04-22T08:44:03;100729.16;;;19.92;48.72
77452;BME280;66537;52.370;4.832;2023-04-22T08:46:30;100731.16;;;19.89;49.38
77452;BME280;66537;52.370;4.832;2023-04-22T08:48:58;100731.78;;;19.92;51.30
77452;BME280;66537;52.370;4.832;2023-04-22T08:51:29;100727.06;;;20.10;49.60
77452;BME280;66537;52.370;4.832;2023-04-22T08:53:56;100730.16;;;20.52;48.47
77452;BME280;66537;52.370;4.832;2023-04-22T08:56:23;100733.91;;;19.87;49.40
77452;BME280;66537;52.370;4.832;2023-04-22T08:58:49;100729.25;;;20.41;49.03
77452;BME280;66537;52.370;4.832;2023-04-22T09:01:15;100727.16;;;19.58;48.90
77452;BME280;66537;52.370;4.832;2023-04-22T09:03:42;100730.75;;;18.91;50.82
77452;BME280;66537;52.370;4.832;2023-04-22T09:06:09;100728.41;;;19.13;51.20
77452;BME280;66537;52.370;4.832;2023-04-22T09:08:35;100728.06;;;19.05;51.01
77452;BME280;66537;52.370;4.832;2023-04-22T09:11:02;100726.53;;;19.67;49.45
77452;BME280;66537;52.370;4.832;2023-04-22T09:13:28;100733.03;;;20.37;49.24
77452;BME280;66537;52.370;4.832;2023-04-22T09:15:53;100723.13;;;20.40;47.17
77452;BME280;66537;52.370;4.832;2023-04-22T09:18:19;100715.72;;;20.71;47.40
77452;BME280;66537;52.370;4.832;2023-04-22T09:20:48;100714.38;;;21.12;47.77
77452;BME280;66537;52.370;4.832;2023-04-22T09:23:14;100708.38;;;21.10;47.24
77452;BME280;66537;52.370;4.832;2023-04-22T09:25:40;100709.25;;;20.98;46.31
77452;BME280;66537;52.370;4.832;2023-04-22T09:28:10;100714.63;;;20.49;46.86
77452;BME280;66537;52.370;4.832;2023-04-22T09:30:36;100703.09;;;20.87;47.36
77452;BME280;66537;52.370;4.832;2023-04-22T09:33:03;100703.75;;;20.90;47.76
77452;BME280;66537;52.370;4.832;2023-04-22T09:35:34;100699.66;;;21.44;45.54
77452;BME280;66537;52.370;4.832;2023-04-22T09:38:01;100696.09;;;20.98;46.67
77452;BME280;66537;52.370;4.832;2023-04-22T09:40:30;100691.41;;;21.03;46.55
77452;BME280;66537;52.370;4.832;2023-04-22T09:42:58;100685.84;;;21.19;47.30
77452;BME280;66537;52.370;4.832;2023-04-22T09:45:27;100684.22;;;21.97;48.48
77452;BME280;66537;52.370;4.832;2023-04-22T09:47:55;100671.28;;;22.70;44.34
77452;BME280;66537;52.370;4.832;2023-04-22T09:50:23;100666.78;;;21.61;45.19
77452;BME280;66537;52.370;4.832;2023-04-22T09:53:15;100658.19;;;21.13;46.36
77452;BME280;66537;52.370;4.832;2023-04-22T09:55:44;100656.84;;;21.42;45.77
77452;BME280;66537;52.370;4.832;2023-04-22T09:58:17;100648.16;;;20.95;45.69
77452;BME280;66537;52.370;4.832;2023-04-22T10:00:50;100639.84;;;20.30;45.84
77452;BME280;66537;52.370;4.832;2023-04-22T10:03:16;100644.13;;;19.57;47.89
77452;BME280;66537;52.370;4.832;2023-04-22T10:05:41;100654.13;;;19.00;49.00
77452;BME280;66537;52.370;4.832;2023-04-22T10:08:09;100664.03;;;18.42;51.11
77452;BME280;66537;52.370;4.832;2023-04-22T10:10:35;100670.59;;;18.49;51.55
77452;BME280;66537;52.370;4.832;2023-04-22T10:13:02;100678.22;;;17.83;51.95
77452;BME280;66537;52.370;4.832;2023-04-22T10:15:51;100681.88;;;17.66;54.08
77452;BME280;66537;52.370;4.832;2023-04-22T10:18:27;100694.22;;;17.78;54.93
77452;BME280;66537;52.370;4.832;2023-04-22T10:20:55;100682.91;;;17.92;53.37
77452;BME280;66537;52.370;4.832;2023-04-22T10:23:22;100687.72;;;17.56;53.88
77452;BME280;66537;52.370;4.832;2023-04-22T10:25:51;100690.94;;;17.31;54.70
77452;BME280;66537;52.370;4.832;2023-04-22T10:28:18;100696.69;;;17.52;54.23
77452;BME280;66537;52.370;4.832;2023-04-22T10:30:44;100689.53;;;17.26;54.36
77452;BME280;66537;52.370;4.832;2023-04-22T10:33:36;100693.66;;;16.84;56.18
77452;BME280;66537;52.370;4.832;2023-04-22T10:36:14;100701.38;;;17.01;55.75
77452;BME280;66537;52.370;4.832;2023-04-22T10:41:15;100706.69;;;16.55;56.59
77452;BME280;66537;52.370;4.832;2023-04-22T10:43:45;100715.72;;;16.32;56.65
77452;BME280;66537;52.370;4.832;2023-04-22T10:48:56;100696.06;;;16.58;57.68
77452;BME280;66537;52.370;4.832;2023-04-22T10:54:07;100703.38;;;16.67;57.25
77452;BME280;66537;52.370;4.832;2023-04-22T10:56:32;100695.13;;;16.59;57.94
77452;BME280;66537;52.370;4.832;2023-04-22T10:58:57;100713.47;;;16.57;57.34
77452;BME280;66537;52.370;4.832;2023-04-22T11:01:26;100708.03;;;16.13;58.55
77452;BME280;66537;52.370;4.832;2023-04-22T11:03:51;100711.22;;;15.53;60.99
77452;BME280;66537;52.370;4.832;2023-04-22T11:06:19;100708.75;;;15.33;61.35
77452;BME280;66537;52.370;4.832;2023-04-22T11:08:49;100710.53;;;15.32;60.81
77452;BME280;66537;52.370;4.832;2023-04-22T11:11:31;100709.00;;;15.28;62.14
77452;BME280;66537;52.370;4.832;2023-04-22T11:13:57;100701.00;;;15.31;62.89
77452;BME280;66537;52.370;4.832;2023-04-22T11:16:22;100699.66;;;15.42;61.45
77452;BME280;66537;52.370;4.832;2023-04-22T11:18:48;100698.41;;;15.31;61.45
77452;BME280;66537;52.370;4.832;2023-04-22T11:21:13;100689.59;;;15.34;61.20
77452;BME280;66537;52.370;4.832;2023-04-22T11:23:48;100700.78;;;15.19;61.83
77452;BME280;66537;52.370;4.832;2023-04-22T11:26:15;100699.94;;;15.01;62.44
77452;BME280;66537;52.370;4.832;2023-04-22T11:28:46;100703.81;;;14.93;61.50
77452;BME280;66537;52.370;4.832;2023-04-22T11:31:13;100707.47;;;14.89;61.74
77452;BME280;66537;52.370;4.832;2023-04-22T11:33:39;100706.38;;;14.76;63.15
77452;BME280;66537;52.370;4.832;2023-04-22T11:36:11;100714.06;;;14.79;63.98
77452;BME280;66537;52.370;4.832;2023-04-22T11:38:36;100710.69;;;14.77;63.56
77452;BME280;66537;52.370;4.832;2023-04-22T11:41:02;100716.34;;;14.49;66.03
77452;BME280;66537;52.370;4.832;2023-04-22T11:43:29;100711.94;;;14.12;66.03
77452;BME280;66537;52.370;4.832;2023-04-22T11:45:55;100706.94;;;13.89;67.55
77452;BME280;66537;52.370;4.832;2023-04-22T11:48:21;100710.53;;;13.67;68.13
77452;BME280;66537;52.370;4.832;2023-04-22T11:50:46;100716.97;;;13.58;69.03
77452;BME280;66537;52.370;4.832;2023-04-22T11:53:16;100722.38;;;13.33;69.07
77452;BME280;66537;52.370;4.832;2023-04-22T11:55:43;100719.25;;;13.25;69.02
77452;BME280;66537;52.370;4.832;2023-04-22T11:58:14;100735.97;;;12.97;70.03
77452;BME280;66537;52.370;4.832;2023-04-22T12:00:47;100749.78;;;12.97;71.67
77452;BME280;66537;52.370;4.832;2023-04-22T12:03:21;100750.47;;;12.81;72.48
77452;BME280;66537;52.370;4.832;2023-04-22T12:05:57;100750.00;;;12.48;73.35
77452;BME280;66537;52.370;4.832;2023-04-22T12:08:37;100751.25;;;12.15;75.42
77452;BME280;66537;52.370;4.832;2023-04-22T12:11:09;100751.59;;;11.81;76.33
77452;BME280;66537;52.370;4.832;2023-04-22T12:16:05;100726.78;;;11.49;79.62
77452;BME280;66537;52.370;4.832;2023-04-22T12:19:02;100719.22;;;11.17;82.08
77452;BME280;66537;52.370;4.832;2023-04-22T12:21:28;100730.63;;;11.12;82.54
77452;BME280;66537;52.370;4.832;2023-04-22T12:24:07;100728.47;;;10.98;80.16
77452;BME280;66537;52.370;4.832;2023-04-22T12:26:34;100734.03;;;10.86;80.09
77452;BME280;66537;52.370;4.832;2023-04-22T12:29:02;100714.13;;;10.62;81.75
77452;BME280;66537;52.370;4.832;2023-04-22T12:31:27;100714.44;;;10.79;83.95
77452;BME280;66537;52.370;4.832;2023-04-22T12:33:53;100745.09;;;10.63;83.48
77452;BME280;66537;52.370;4.832;2023-04-22T12:36:19;100756.88;;;10.73;83.99
77452;BME280;66537;52.370;4.832;2023-04-22T12:38:45;100738.72;;;10.75;83.16
77452;BME280;66537;52.370;4.832;2023-04-22T12:41:11;100728.34;;;10.47;85.68
77452;BME280;66537;52.370;4.832;2023-04-22T12:43:36;100731.13;;;10.69;87.26
77452;BME280;66537;52.370;4.832;2023-04-22T12:46:04;100750.53;;;10.83;86.67
77452;BME280;66537;52.370;4.832;2023-04-22T12:48:30;100795.06;;;10.65;86.49
77452;BME280;66537;52.370;4.832;2023-04-22T12:50:55;100804.38;;;10.42;88.62
77452;BME280;66537;52.370;4.832;2023-04-22T12:53:22;100784.44;;;10.45;89.32
77452;BME280;66537;52.370;4.832;2023-04-22T12:55:47;100728.88;;;10.58;87.81
77452;BME280;66537;52.370;4.832;2023-04-22T12:58:12;100678.22;;;10.51;89.84
77452;BME280;66537;52.370;4.832;2023-04-22T13:00:38;100652.31;;;10.53;90.55
77452;BME280;66537;52.370;4.832;2023-04-22T13:03:03;100656.84;;;10.72;90.33